Teterboro Airport
KTEB : now visible

Airfield :











YOU CAN JOIN US ON...

 
LOGIN :

Register | Disclaimer

   EN    FR    IT 

 









Legend :    VFR   Marginal VFR   IFR   Intensive IFR   Very Intensive IFR
Visi :
Ceiling :
>= 8 km
>= 3000ft
5 to 8 km
1000 to 3000 ft
1500m to 5 km
500 to 1000 ft
800 to 1500m
200 to 500 ft
< 800m
< 200 ft
Symbols :   Thunderstorms  Fog  Heavy snow  Heavy precipitations  Wind > 20 kt






- Airport Elevation : 9 ft


KTEB - Teterboro

CURRENT METAR :
  • 240551Z 22005KT 10SM OVC100 06/M07 A3008 RMK AO2 SLP185 T00561072 10089 20039 56005

EXPIRED METARs :
  • 240451Z 20005KT 10SM OVC100 05/M07 A3008 RMK AO2 SLP185 T00501072 401331044
  • 240351Z 23004KT 10SM CLR 05/M07 A3009 RMK AO2 SLP190 T00501072

TAF KTEB
Valid from the 24 at 06:00 until the 25 at 12:00 UTC


240527Z 2406/2512 VRB03KT P6SM FEW120
FM241500 22005KT P6SM SCT250
FM241900 19008KT P6SM BKN250
FM250000 VRB03KT P6SM OVC100
FM250800 VRB03KT P6SM SCT025 OVC050
FM251100 VRB03KT P6SM VCSH BKN025 OVC050



MET'MAP, your aeronautical weather chart ! - Copyright ORBIFLY December 2007 - Disclaimer

ORBIFLY MET'MAP TEAM :

Programming & Development : Alexandra Zaïnal
Concept & original design : Baudouin d'Aumeries
Assistance for programming : Marc-Olivier Méhu
Technical & hardware support : Manuel Goepfert

Contact : metmap@orbifly.com




SOURCES & CREDITS :

   NOAA       Earth
Advisory